Nelson, Wisconsin
Current Conditions -  °F | °C
As of 10:51 PM on Saturday 22 Nov 2014 (Local Time) from KRGK Reporting Station
Haze Haze  
Wind Chill: 36°   Ceiling: NA
Heat Index: 41°   Visibility: 3mi
Dew Point: 39°   Wind: 7mph
Humidity: 93%   Direction: 120°ESE
Pressure: 29.55"   Gusts: NA
Location:  44.42°N, 92.01°W
Report Text: KRGK 230451Z AUTO 12006KT 3SM BR 05/04 A2955 RMK AO2
Loading
Personal Weather Stations






























Interactive Weather Map New forecast layout! Learn more

10-Day Weather Forecast

Advertisements
Track Severe Weather on mobile